Keller, VA (23401)

7:08 PM EDT on March 28, 2015 (GMT -0400)
Accomack County | | Change Station
CLOSE
Current Station
Airport
Location: Melfa,
Elevation: 46 ft
Nearby Weather Stations

Elev 46 ft 37.65 °N, 75.76 °W | Updated 13 minutes ago

Clear
Clear
34 °F
Feels Like 23 °F
N
17
Wind Variable Wind from NW
Gusts 32 mph

Today
High -- | Low -- °F
--% Chance of Precip.
Yesterday
High -- | Low -- °F
Precip. -- in
6:54 AM 7:21 PM
Waxing Gibbous, 66% visible
Pressure 30.09 in
Visibility 10.0 miles
Clouds Clear
Windchill 23 °F
Dew Point 12 °F
Humidity 41%
Rainfall 0.00 in
Snow Depth Not available.
UV 0 out of 12
Pollen 9.50 out of 12
Air Quality Not available.
Flu Activity Not available.
METAR KMFV 282255Z AUTO 32015G28KT 10SM CLR 01/M11 A3009 RMK AO2

More Conditions Fewer Conditions

Pressure 30.09 in
Visibility 10.0 miles
Clouds Clear
Windchill 23 °F
Dew Point 12 °F
Humidity 41%
Rainfall 0.00 in
Snow Depth Not available.
UV 0 out of 12
Pollen 9.50 out of 12
Air Quality Not available.
Flu Activity Not available.
METAR KMFV 282255Z AUTO 32015G28KT 10SM CLR 01/M11 A3009 RMK AO2

More Conditions Fewer Conditions

10-Day Weather Forecast

Almanac

Astronomy

Mar. 28, 2015 Rise Set
Actual Time
Civil Twilight
Nautical Twilight
Astronomical Twilight
Moon
Length of Visible Light
Length of Day
Tomorrow will be .
, % of the Moon is Illuminated

Today's Extremes

State Highs State Lows

Community

WunderPhotos

Upload Photos

1,809,121 photos uploaded!

WunderBlogs® & News

Nearby

Air Quality

  Air Quality AQ Index Pollutant
Not available.

Snow Depth

Station Depth Elevation

Earthquake Activity

City Distance Mag. Time & Date
Minimum magnitude displayed is 2.5.

Coastal Water Temperatures

Place Temperature

Stations

Nearby Weather Stations

Station Location Temp. Windchill Dew Point Humidity Wind Precip. Elev Updated Type